Time;durP1;ratioP1;P1;durP2;ratioP2;P2;SDS_P1;SDS_P2;PMS_P1;PMS_P2;Temp;Humidity;BMP_temperature;BMP_pressure;BME280_temperature;BME280_humidity;BME280_pressure;Samples;Min_cycle;Max_cycle;Signal;HPM_P1;HPM_P2
2022/07/05 00:00:15;;;;;;;1.30;1.20;;;26.40;64.50;;;;;;5034053;28;20545;-86
2022/07/05 00:02:42;;;;;;;2.27;1.23;;;26.40;64.40;;;;;;5034116;28;20471;-90
2022/07/05 00:05:10;;;;;;;2.13;0.93;;;26.40;64.50;;;;;;5034183;28;20441;-86
2022/07/05 00:07:37;;;;;;;2.70;1.10;;;26.40;64.50;;;;;;5034037;28;20498;-89
2022/07/05 00:10:06;;;;;;;1.10;1.00;;;26.30;64.40;;;;;;5034170;28;20489;-86
2022/07/05 00:12:34;;;;;;;1.63;1.17;;;26.30;64.30;;;;;;5033787;28;20443;-85
2022/07/05 00:15:02;;;;;;;1.10;1.00;;;26.30;64.40;;;;;;5033969;28;20538;-86
2022/07/05 00:17:28;;;;;;;1.40;1.00;;;26.40;64.40;;;;;;5033650;28;20493;-86
2022/07/05 00:19:56;;;;;;;1.20;1.03;;;26.40;64.40;;;;;;5014265;28;20529;-88
2022/07/05 00:22:24;;;;;;;1.10;1.00;;;26.40;64.40;;;;;;5014083;28;20531;-89
2022/07/05 00:24:51;;;;;;;1.10;1.00;;;26.40;64.40;;;;;;5013999;28;20527;-86
2022/07/05 00:27:18;;;;;;;1.30;1.07;;;26.30;64.30;;;;;;5014345;28;20534;-88
2022/07/05 00:29:44;;;;;;;1.10;1.00;;;26.30;64.40;;;;;;5014041;28;20446;-87
2022/07/05 00:32:11;;;;;;;1.37;1.10;;;26.30;64.20;;;;;;5014270;28;20857;-86
2022/07/05 00:34:38;;;;;;;1.20;1.10;;;26.30;64.30;;;;;;5013736;28;20439;-88
2022/07/05 00:37:05;;;;;;;1.10;0.97;;;26.40;64.40;;;;;;5013763;28;20569;-86
2022/07/05 00:39:33;;;;;;;1.13;1.03;;;26.40;64.40;;;;;;5013629;28;20526;-87
2022/07/05 00:42:01;;;;;;;1.73;1.10;;;26.30;64.20;;;;;;5013200;28;20534;-88
2022/07/05 00:44:31;;;;;;;1.00;0.80;;;26.40;65.30;;;;;;5013922;28;20970;-86
2022/07/05 00:46:59;;;;;;;1.10;1.00;;;26.30;64.30;;;;;;5013474;28;20947;-85
2022/07/05 00:49:26;;;;;;;1.10;1.00;;;26.40;64.40;;;;;;5013884;28;20483;-88
2022/07/05 00:51:53;;;;;;;1.50;0.93;;;26.40;64.40;;;;;;5013672;28;20530;-87
2022/07/05 00:54:20;;;;;;;1.30;1.00;;;26.40;64.40;;;;;;5013959;28;20439;-86
2022/07/05 00:56:49;;;;;;;1.20;1.00;;;26.40;64.30;;;;;;5013846;28;20562;-86
2022/07/05 00:59:16;;;;;;;1.20;0.93;;;26.40;64.30;;;;;;5013611;28;20526;-86
2022/07/05 01:01:42;;;;;;;1.27;1.17;;;26.30;64.20;;;;;;5013710;28;20454;-86
2022/07/05 01:04:11;;;;;;;1.27;1.10;;;26.30;64.30;;;;;;5013346;28;20539;-86
2022/07/05 01:06:38;;;;;;;1.00;0.90;;;26.30;64.20;;;;;;5013376;28;20457;-89
2022/07/05 01:09:06;;;;;;;1.07;0.90;;;26.30;64.30;;;;;;5013389;28;20550;-87
2022/07/05 01:11:32;;;;;;;1.10;0.80;;;26.30;64.20;;;;;;5013502;28;20535;-89
2022/07/05 01:14:02;;;;;;;1.10;1.00;;;26.30;64.20;;;;;;5013478;28;20497;-89
2022/07/05 01:16:29;;;;;;;1.80;1.20;;;26.30;64.20;;;;;;5013122;28;20478;-89
2022/07/05 01:18:56;;;;;;;1.00;0.87;;;26.30;64.20;;;;;;5012888;28;20590;-89
2022/07/05 01:21:26;;;;;;;1.20;1.00;;;26.30;64.20;;;;;;5013435;28;20486;-84
2022/07/05 01:23:55;;;;;;;0.97;0.77;;;26.30;64.20;;;;;;5013549;28;20873;-85
2022/07/05 01:26:22;;;;;;;1.20;1.10;;;26.30;64.30;;;;;;5013591;28;20530;-85
2022/07/05 01:28:49;;;;;;;1.10;1.00;;;26.30;65.20;;;;;;5013011;28;20490;-88
2022/07/05 01:31:16;;;;;;;1.37;1.03;;;26.30;64.20;;;;;;5012996;28;20443;-85
2022/07/05 01:33:43;;;;;;;1.00;0.90;;;26.30;64.30;;;;;;5013236;28;20509;-85
2022/07/05 01:36:12;;;;;;;1.30;1.07;;;26.30;64.20;;;;;;5013136;28;20440;-85
2022/07/05 01:38:39;;;;;;;1.10;1.00;;;26.30;64.30;;;;;;5013182;28;20511;-87
2022/07/05 01:41:10;;;;;;;1.30;1.13;;;26.30;64.40;;;;;;5013187;28;20443;-85
2022/07/05 01:43:37;;;;;;;1.20;1.00;;;26.30;64.30;;;;;;5013336;28;20435;-86
2022/07/05 01:46:08;;;;;;;1.10;0.93;;;26.30;64.30;;;;;;5013174;28;20857;-87
2022/07/05 01:48:38;;;;;;;1.03;0.93;;;26.30;64.30;;;;;;5013252;28;20451;-85
2022/07/05 01:51:06;;;;;;;1.07;0.97;;;26.30;64.30;;;;;;5013430;28;20528;-85
2022/07/05 01:53:34;;;;;;;1.10;0.97;;;26.30;64.30;;;;;;5016738;28;20447;-85
2022/07/05 01:56:03;;;;;;;1.17;1.07;;;26.30;64.30;;;;;;5017041;28;20537;-86
2022/07/05 01:58:32;;;;;;;1.20;1.10;;;26.30;64.40;;;;;;5016289;28;20566;-85
2022/07/05 02:01:00;;;;;;;1.70;1.00;;;26.30;64.30;;;;;;5016790;28;20479;-85
2022/07/05 02:03:27;;;;;;;1.10;1.00;;;26.30;64.40;;;;;;5016701;28;20451;-86
2022/07/05 02:05:54;;;;;;;1.33;0.97;;;26.30;64.40;;;;;;4999416;28;20496;-88
2022/07/05 02:08:21;;;;;;;1.00;0.87;;;26.30;64.40;;;;;;5016261;28;21066;-88
2022/07/05 02:10:49;;;;;;;1.20;1.03;;;26.30;64.50;;;;;;5016638;28;20470;-88
2022/07/05 02:13:16;;;;;;;1.10;1.00;;;26.30;64.40;;;;;;5016538;28;20515;-86
2022/07/05 02:15:44;;;;;;;1.13;1.00;;;26.20;64.30;;;;;;5016476;28;20498;-85
2022/07/05 02:18:11;;;;;;;1.10;1.00;;;26.20;64.30;;;;;;5021904;28;21009;-85
2022/07/05 02:20:40;;;;;;;1.03;0.90;;;26.20;64.20;;;;;;5035892;28;20504;-85
2022/07/05 02:23:07;;;;;;;1.00;0.90;;;26.30;64.30;;;;;;5036198;28;20470;-85
2022/07/05 02:25:34;;;;;;;1.00;0.80;;;26.30;64.30;;;;;;5036082;28;20501;-86
2022/07/05 02:28:01;;;;;;;1.00;0.80;;;26.20;64.40;;;;;;5035863;28;20954;-85
2022/07/05 02:30:28;;;;;;;1.20;0.90;;;26.30;64.40;;;;;;5035753;28;20477;-88
2022/07/05 02:32:56;;;;;;;1.10;1.00;;;26.30;64.40;;;;;;5035815;28;20474;-86
2022/07/05 02:35:23;;;;;;;1.20;0.90;;;26.30;64.50;;;;;;5035813;28;20447;-86
2022/07/05 02:37:50;;;;;;;2.70;1.10;;;26.30;64.40;;;;;;5035615;28;20537;-88
2022/07/05 02:40:17;;;;;;;1.40;1.07;;;26.20;64.40;;;;;;5035797;28;21000;-85
2022/07/05 02:42:44;;;;;;;1.20;0.90;;;26.20;64.40;;;;;;5035659;28;20520;-85
2022/07/05 02:45:11;;;;;;;1.00;0.80;;;26.20;64.40;;;;;;5035471;28;20482;-87
2022/07/05 02:47:38;;;;;;;1.13;1.03;;;26.20;64.40;;;;;;5035548;28;20482;-88
2022/07/05 02:50:08;;;;;;;1.00;0.83;;;26.20;64.40;;;;;;5035407;28;20482;-86
2022/07/05 02:52:36;;;;;;;1.10;1.00;;;26.20;64.50;;;;;;5035270;28;20475;-87
2022/07/05 02:55:03;;;;;;;1.20;1.10;;;26.20;64.50;;;;;;5035557;28;20443;-85
2022/07/05 02:57:30;;;;;;;1.10;1.00;;;26.20;64.50;;;;;;5035603;28;20562;-88
2022/07/05 02:59:58;;;;;;;1.10;1.00;;;26.20;64.60;;;;;;5035330;28;20486;-88
2022/07/05 03:02:25;;;;;;;1.10;1.00;;;26.20;64.60;;;;;;5035465;28;21242;-86
2022/07/05 03:04:52;;;;;;;1.10;0.90;;;26.20;64.50;;;;;;5034914;28;20442;-85
2022/07/05 03:07:20;;;;;;;1.07;0.90;;;26.20;64.60;;;;;;5035206;28;20494;-88
2022/07/05 03:09:47;;;;;;;1.10;0.90;;;26.20;64.50;;;;;;5035011;28;20542;-85
2022/07/05 03:12:14;;;;;;;1.37;1.07;;;26.20;64.60;;;;;;5035507;28;20463;-85
2022/07/05 03:14:41;;;;;;;1.00;0.90;;;26.20;64.60;;;;;;5035180;28;20915;-87
2022/07/05 03:17:08;;;;;;;1.00;0.90;;;26.20;64.70;;;;;;5035177;28;20462;-86
2022/07/05 03:19:35;;;;;;;0.97;0.80;;;26.20;64.60;;;;;;5034658;28;20578;-89
2022/07/05 03:22:02;;;;;;;1.07;0.97;;;26.20;64.50;;;;;;5035105;28;20856;-85
2022/07/05 03:24:30;;;;;;;1.00;0.90;;;26.20;64.70;;;;;;5034720;28;20470;-89
2022/07/05 03:26:57;;;;;;;1.00;0.90;;;26.20;64.60;;;;;;5034923;28;20478;-86
2022/07/05 03:29:24;;;;;;;1.20;1.10;;;26.20;64.60;;;;;;5034875;28;20512;-86
2022/07/05 03:31:51;;;;;;;1.10;1.00;;;26.20;64.60;;;;;;5034818;28;20489;-88
2022/07/05 03:34:17;;;;;;;1.00;0.90;;;26.20;64.60;;;;;;5034665;28;20490;-85
2022/07/05 03:36:44;;;;;;;1.00;0.90;;;26.20;64.50;;;;;;5034458;28;20534;-85
2022/07/05 03:39:11;;;;;;;1.13;1.03;;;26.20;65.50;;;;;;5034609;28;20577;-88
2022/07/05 03:41:39;;;;;;;1.10;0.90;;;26.20;64.70;;;;;;5034926;28;20508;-87
2022/07/05 03:44:06;;;;;;;1.10;1.00;;;26.20;64.70;;;;;;5034256;28;20471;-88
2022/07/05 03:46:33;;;;;;;0.90;0.80;;;26.20;64.70;;;;;;5034448;28;20530;-88
2022/07/05 03:49:00;;;;;;;1.47;0.97;;;26.20;64.70;;;;;;5034622;28;20469;-86
2022/07/05 03:51:27;;;;;;;1.10;1.00;;;26.20;64.70;;;;;;5034243;28;20466;-88
2022/07/05 03:53:54;;;;;;;1.00;0.87;;;26.20;64.70;;;;;;5034486;28;20481;-89
2022/07/05 03:56:22;;;;;;;0.97;0.80;;;26.20;64.70;;;;;;5034243;28;20461;-86
2022/07/05 03:58:51;;;;;;;1.10;0.80;;;26.20;64.70;;;;;;5034294;28;20486;-88
2022/07/05 04:01:19;;;;;;;1.20;1.00;;;26.20;64.70;;;;;;5034450;28;20520;-86
2022/07/05 04:03:46;;;;;;;1.10;0.93;;;26.20;64.80;;;;;;5034060;28;20512;-87
2022/07/05 04:06:13;;;;;;;1.00;0.90;;;26.20;64.80;;;;;;5034148;28;20435;-86
2022/07/05 04:08:40;;;;;;;1.30;1.10;;;26.20;64.80;;;;;;5034175;28;20795;-85
2022/07/05 04:11:09;;;;;;;1.10;1.00;;;26.20;64.80;;;;;;5033832;28;21024;-89
2022/07/05 04:13:36;;;;;;;1.10;1.00;;;26.20;64.80;;;;;;5034294;28;20802;-85
2022/07/05 04:16:04;;;;;;;1.10;0.90;;;26.20;64.80;;;;;;5033208;28;20543;-86
2022/07/05 04:18:31;;;;;;;1.13;1.03;;;26.20;64.80;;;;;;5033544;28;20572;-89
2022/07/05 04:20:58;;;;;;;1.40;1.00;;;26.20;64.70;;;;;;5034020;28;20496;-86
2022/07/05 04:23:26;;;;;;;1.10;0.90;;;26.20;64.80;;;;;;5034000;28;20548;-85
2022/07/05 04:25:53;;;;;;;1.10;0.83;;;26.20;64.90;;;;;;5034133;28;20771;-89
2022/07/05 04:28:20;;;;;;;1.20;0.90;;;26.20;64.90;;;;;;5033752;28;21024;-86
2022/07/05 04:30:47;;;;;;;1.00;0.90;;;26.20;65.00;;;;;;5033745;28;20466;-85
2022/07/05 04:33:15;;;;;;;1.10;1.00;;;26.20;65.00;;;;;;5033702;28;21425;-85
2022/07/05 04:35:42;;;;;;;1.10;0.97;;;26.20;65.00;;;;;;5033716;28;20524;-88
2022/07/05 04:38:09;;;;;;;1.03;0.93;;;26.20;65.10;;;;;;5033575;28;20568;-88
2022/07/05 04:40:36;;;;;;;1.10;1.00;;;26.20;65.10;;;;;;5033601;28;20504;-85
2022/07/05 04:43:03;;;;;;;1.33;1.13;;;26.20;65.20;;;;;;5033438;28;20443;-85
2022/07/05 04:45:30;;;;;;;1.10;1.00;;;26.20;65.00;;;;;;5033746;28;20540;-85
2022/07/05 04:47:57;;;;;;;1.20;1.10;;;26.20;65.00;;;;;;5033564;28;20486;-86
2022/07/05 04:50:25;;;;;;;1.13;1.00;;;26.20;65.00;;;;;;5033716;28;20527;-89
2022/07/05 04:52:52;;;;;;;1.00;0.80;;;26.20;65.80;;;;;;5033675;28;20435;-88
2022/07/05 04:55:19;;;;;;;1.10;1.00;;;26.20;65.00;;;;;;5033239;28;20439;-85
2022/07/05 04:57:46;;;;;;;1.50;1.20;;;26.20;64.90;;;;;;5033433;28;20439;-85
2022/07/05 05:00:14;;;;;;;1.00;0.90;;;26.20;65.00;;;;;;5033432;28;20537;-86
2022/07/05 05:02:41;;;;;;;1.00;0.87;;;26.20;65.00;;;;;;5033433;28;20441;-84
2022/07/05 05:05:09;;;;;;;1.20;1.00;;;26.10;65.10;;;;;;5033412;28;20454;-89
2022/07/05 05:07:39;;;;;;;1.10;0.80;;;26.20;65.20;;;;;;5033293;28;20533;-85
2022/07/05 05:10:07;;;;;;;1.20;0.93;;;26.20;65.10;;;;;;5033261;28;20500;-88
2022/07/05 05:12:34;;;;;;;1.10;0.90;;;26.20;65.20;;;;;;5033212;28;20441;-85
2022/07/05 05:15:02;;;;;;;1.33;1.23;;;26.20;65.30;;;;;;5033167;28;20470;-86
2022/07/05 05:17:36;;;;;;;1.03;0.93;;;26.20;65.30;;;;;;5033060;28;20538;-86
2022/07/05 05:20:03;;;;;;;1.10;0.97;;;26.20;65.30;;;;;;5033199;28;20985;-86
2022/07/05 05:22:30;;;;;;;1.80;0.90;;;26.20;65.30;;;;;;5033397;28;20489;-85
2022/07/05 05:24:58;;;;;;;1.10;1.00;;;26.20;65.30;;;;;;5033045;28;20485;-88
2022/07/05 05:27:25;;;;;;;1.10;0.90;;;26.20;65.10;;;;;;5036061;28;20439;-89
2022/07/05 05:29:52;;;;;;;1.30;1.20;;;26.20;65.20;;;;;;5036660;28;20470;-85
2022/07/05 05:32:19;;;;;;;1.10;1.00;;;26.20;65.10;;;;;;5037020;28;20461;-85
2022/07/05 05:34:45;;;;;;;1.10;0.80;;;26.20;65.10;;;;;;5036732;28;20439;-86
2022/07/05 05:37:12;;;;;;;1.20;0.97;;;26.20;65.00;;;;;;5036405;28;20474;-85
2022/07/05 05:39:39;;;;;;;1.00;0.90;;;26.20;64.90;;;;;;5036737;28;20524;-85
2022/07/05 05:42:08;;;;;;;1.20;1.10;;;26.10;64.80;;;;;;5037269;28;20434;-85
2022/07/05 05:44:35;;;;;;;1.67;1.00;;;26.20;64.80;;;;;;5037030;28;20442;-85
2022/07/05 05:47:02;;;;;;;1.10;1.00;;;26.20;64.80;;;;;;5036953;28;20483;-86
2022/07/05 05:49:29;;;;;;;1.07;0.97;;;26.20;64.80;;;;;;5036564;28;20447;-89
2022/07/05 05:51:56;;;;;;;1.30;1.20;;;26.10;64.60;;;;;;5037082;28;20443;-87
2022/07/05 05:54:23;;;;;;;1.20;1.00;;;26.20;64.70;;;;;;5036618;28;20950;-85
2022/07/05 05:56:50;;;;;;;1.30;1.10;;;26.20;64.60;;;;;;5036489;28;20520;-86
2022/07/05 05:59:18;;;;;;;1.23;1.00;;;26.20;64.60;;;;;;5036407;28;20569;-84
2022/07/05 06:01:45;;;;;;;1.10;1.00;;;26.20;64.70;;;;;;5027590;28;20521;-89
2022/07/05 06:04:12;;;;;;;1.40;1.30;;;26.10;64.60;;;;;;5036224;28;20466;-86
2022/07/05 06:06:39;;;;;;;1.10;1.00;;;26.20;64.70;;;;;;5036208;28;20443;-85
2022/07/05 06:09:06;;;;;;;1.00;0.80;;;26.20;64.70;;;;;;5036071;28;20438;-89
2022/07/05 06:11:33;;;;;;;2.13;1.53;;;26.20;65.00;;;;;;5036379;28;21378;-84
2022/07/05 06:14:00;;;;;;;3.57;2.07;;;26.10;64.00;;;;;;5036352;28;20500;-86
2022/07/05 06:16:28;;;;;;;2.73;1.50;;;26.10;63.30;;;;;;5036920;28;20566;-88
2022/07/05 06:18:55;;;;;;;5.97;1.40;;;26.00;63.10;;;;;;5035955;28;20576;-88
2022/07/05 06:21:22;;;;;;;2.57;1.67;;;26.00;62.80;;;;;;5035925;28;20479;-89
2022/07/05 06:23:49;;;;;;;1.87;1.47;;;26.00;62.40;;;;;;5036412;28;20527;-88
2022/07/05 06:26:15;;;;;;;4.70;1.50;;;26.00;62.30;;;;;;5035439;28;20478;-87
2022/07/05 06:28:42;;;;;;;3.23;1.50;;;26.00;62.30;;;;;;5035759;28;20533;-87
2022/07/05 06:31:09;;;;;;;2.90;1.27;;;25.90;62.10;;;;;;5035987;28;20521;-89
2022/07/05 06:33:37;;;;;;;5.07;1.53;;;25.90;62.00;;;;;;5036051;28;20466;-86
2022/07/05 06:36:05;;;;;;;4.23;1.37;;;25.90;62.10;;;;;;5035742;28;20538;-90
2022/07/05 06:38:32;;;;;;;5.00;1.70;;;25.90;62.60;;;;;;5034800;28;20877;-90
2022/07/05 06:40:59;;;;;;;2.43;1.77;;;25.90;62.60;;;;;;5035949;28;20470;-90
2022/07/05 06:43:26;;;;;;;3.00;1.73;;;26.00;62.60;;;;;;5036751;28;20810;-89
2022/07/05 06:45:54;;;;;;;2.50;1.27;;;25.90;62.60;;;;;;5035706;28;20969;-92
2022/07/05 06:48:21;;;;;;;5.83;1.50;;;26.00;62.80;;;;;;5036067;28;20442;-91
2022/07/05 06:50:49;;;;;;;3.57;1.67;;;26.00;63.40;;;;;;5035500;28;20537;-91
2022/07/05 06:53:16;;;;;;;1.93;1.70;;;25.90;63.40;;;;;;5035749;28;20474;-89
2022/07/05 06:55:44;;;;;;;7.40;1.70;;;25.90;63.70;;;;;;5035556;28;20443;-90
2022/07/05 06:58:12;;;;;;;1.13;1.00;;;26.00;63.80;;;;;;5035574;28;20883;-90
2022/07/05 07:00:40;;;;;;;6.37;1.63;;;26.00;63.70;;;;;;5035353;28;21008;-90
2022/07/05 07:03:06;;;;;;;1.30;1.20;;;26.00;63.80;;;;;;5035610;28;20954;-88
2022/07/05 07:05:33;;;;;;;1.30;1.07;;;26.00;64.80;;;;;;5036079;28;20447;-90
2022/07/05 07:10:46;;;;;;;1.83;1.17;;;26.00;64.30;;;;;;5036013;28;20414;-92
2022/07/05 07:13:13;;;;;;;1.87;1.17;;;26.00;64.60;;;;;;5036381;28;20450;-92
2022/07/05 07:15:41;;;;;;;1.43;1.03;;;26.00;64.70;;;;;;5035908;28;20486;-91
2022/07/05 07:18:08;;;;;;;2.20;1.40;;;26.00;64.70;;;;;;5036447;28;20508;-92
2022/07/05 07:20:35;;;;;;;1.60;1.10;;;26.00;64.70;;;;;;5035588;28;20579;-90
2022/07/05 07:23:04;;;;;;;1.30;0.90;;;26.00;64.90;;;;;;5018161;28;20454;-89
2022/07/05 07:25:31;;;;;;;2.27;1.40;;;26.00;64.80;;;;;;5035777;28;20474;-91
2022/07/05 07:27:58;;;;;;;1.20;1.10;;;26.00;64.90;;;;;;5035875;28;20475;-91
2022/07/05 07:30:27;;;;;;;1.83;1.50;;;26.00;64.80;;;;;;5034743;28;20528;-92
2022/07/05 07:32:54;;;;;;;1.70;1.40;;;26.00;64.80;;;;;;5034958;28;20814;-91
2022/07/05 07:35:22;;;;;;;1.60;1.30;;;26.00;64.80;;;;;;5034913;28;20500;-91
2022/07/05 07:37:49;;;;;;;2.50;1.27;;;26.00;64.80;;;;;;5034770;28;20563;-91
2022/07/05 07:40:17;;;;;;;3.10;1.30;;;26.00;64.70;;;;;;5042731;28;20513;-91
2022/07/05 07:42:44;;;;;;;1.87;1.30;;;26.00;64.60;;;;;;5039257;28;20541;-91
2022/07/05 07:45:11;;;;;;;1.50;1.00;;;26.10;64.70;;;;;;5034881;28;20792;-90
2022/07/05 07:47:39;;;;;;;3.40;1.77;;;26.10;64.80;;;;;;5035077;28;20539;-91
2022/07/05 07:50:07;;;;;;;1.87;1.07;;;26.00;64.70;;;;;;5034621;28;20454;-90
2022/07/05 07:52:34;;;;;;;1.17;1.07;;;26.10;64.70;;;;;;5034871;28;20443;-91
2022/07/05 07:55:01;;;;;;;2.67;1.33;;;26.10;64.60;;;;;;5035254;28;20478;-94
2022/07/05 07:57:30;;;;;;;2.20;1.10;;;26.10;64.70;;;;;;5035894;28;20439;-90
2022/07/05 07:59:57;;;;;;;3.70;1.30;;;26.10;64.80;;;;;;5035285;28;20478;-90
2022/07/05 08:02:24;;;;;;;2.43;1.33;;;26.00;64.70;;;;;;5035179;28;21004;-91
2022/07/05 08:04:51;;;;;;;1.67;1.10;;;26.10;64.70;;;;;;5035822;28;20504;-91
2022/07/05 08:07:19;;;;;;;2.80;1.03;;;26.10;64.70;;;;;;5034045;28;20541;-92
2022/07/05 08:09:46;;;;;;;1.63;1.10;;;26.10;64.60;;;;;;5034131;28;20449;-91
2022/07/05 08:12:14;;;;;;;1.97;0.97;;;26.10;64.50;;;;;;5034077;28;20504;-91
2022/07/05 08:14:42;;;;;;;2.67;1.03;;;26.10;64.40;;;;;;5034315;28;20431;-91
2022/07/05 08:17:09;;;;;;;1.60;1.37;;;26.00;64.30;;;;;;5034204;28;20493;-92
2022/07/05 08:22:21;;;;;;;1.50;1.10;;;26.10;64.40;;;;;;5034525;28;20422;-91
2022/07/05 08:24:48;;;;;;;3.33;1.00;;;26.10;64.50;;;;;;5033724;28;20442;-91
2022/07/05 08:27:15;;;;;;;1.60;1.10;;;26.10;65.40;;;;;;5034088;28;20476;-91
2022/07/05 08:29:44;;;;;;;3.20;1.10;;;26.10;64.50;;;;;;5034395;28;20443;-91
2022/07/05 08:32:11;;;;;;;2.03;1.20;;;26.00;64.50;;;;;;5033946;28;20851;-91
2022/07/05 08:34:38;;;;;;;1.37;1.10;;;26.10;64.60;;;;;;5034082;28;20524;-91
2022/07/05 08:37:06;;;;;;;1.97;1.40;;;26.10;64.50;;;;;;5034093;28;20869;-90
2022/07/05 08:39:33;;;;;;;1.40;1.30;;;26.10;64.50;;;;;;5033793;28;20536;-91
2022/07/05 08:42:01;;;;;;;1.23;0.90;;;26.10;64.40;;;;;;5034140;28;20447;-90
2022/07/05 08:44:30;;;;;;;1.63;0.93;;;26.10;64.40;;;;;;5033877;28;20454;-90
2022/07/05 08:46:59;;;;;;;2.90;1.30;;;26.10;64.40;;;;;;5033820;28;20526;-90
2022/07/05 08:49:27;;;;;;;1.23;1.10;;;26.10;64.40;;;;;;5033685;28;20443;-90
2022/07/05 08:51:55;;;;;;;1.30;1.00;;;26.10;64.40;;;;;;5033704;28;20475;-91
2022/07/05 08:54:24;;;;;;;1.20;1.10;;;26.10;64.40;;;;;;5033797;28;20948;-92
2022/07/05 08:56:52;;;;;;;1.40;1.10;;;26.10;64.40;;;;;;5033819;28;20442;-93
2022/07/05 08:59:19;;;;;;;1.50;1.13;;;26.20;64.50;;;;;;5033391;28;20487;-93
2022/07/05 09:01:47;;;;;;;2.10;1.20;;;26.10;64.50;;;;;;5033243;28;20534;-94
2022/07/05 09:04:18;;;;;;;1.67;1.07;;;26.10;64.50;;;;;;5033785;28;20446;-93
2022/07/05 09:06:47;;;;;;;1.23;1.13;;;26.10;64.50;;;;;;5033910;28;20486;-92
2022/07/05 09:09:18;;;;;;;1.33;0.87;;;26.10;64.50;;;;;;5033605;28;20537;-93
2022/07/05 09:11:46;;;;;;;1.50;1.17;;;26.10;64.60;;;;;;5033991;28;20443;-93
2022/07/05 09:14:20;;;;;;;1.17;1.00;;;26.10;64.50;;;;;;5034024;28;20454;-93
2022/07/05 09:16:47;;;;;;;1.63;1.33;;;26.10;64.40;;;;;;5033929;28;20435;-94
2022/07/05 09:19:16;;;;;;;1.20;1.10;;;26.10;64.50;;;;;;5024200;28;20819;-94
2022/07/05 09:21:43;;;;;;;1.53;1.10;;;26.10;64.80;;;;;;5014808;28;20456;-88
2022/07/05 09:24:12;;;;;;;1.40;1.27;;;26.20;64.70;;;;;;5000380;28;20453;-90
2022/07/05 09:26:41;;;;;;;1.40;1.00;;;26.20;64.90;;;;;;5006340;28;20468;-92
2022/07/05 09:29:09;;;;;;;1.27;1.17;;;26.20;65.00;;;;;;5013992;28;20942;-93
2022/07/05 09:31:37;;;;;;;2.03;1.40;;;26.20;65.20;;;;;;5014137;28;20448;-91
2022/07/05 09:34:06;;;;;;;1.50;1.07;;;26.20;65.30;;;;;;5013254;28;20924;-90
2022/07/05 09:36:50;;;;;;;1.00;0.90;;;26.20;65.30;;;;;;5013099;28;20475;-88
2022/07/05 09:39:17;;;;;;;1.93;1.30;;;26.20;65.30;;;;;;5012972;28;20439;-90
2022/07/05 09:41:44;;;;;;;1.40;1.20;;;26.20;65.40;;;;;;5013464;28;20444;-91
2022/07/05 09:44:11;;;;;;;1.20;0.90;;;26.20;65.30;;;;;;5013435;28;20513;-89
2022/07/05 09:46:39;;;;;;;1.40;1.10;;;26.20;65.40;;;;;;5012899;28;20487;-89
2022/07/05 09:49:06;;;;;;;2.30;1.20;;;26.20;65.60;;;;;;5012962;28;20810;-88
2022/07/05 09:51:50;;;;;;;3.30;1.27;;;26.20;65.80;;;;;;4994896;28;20531;-88
2022/07/05 09:54:16;;;;;;;2.80;1.40;;;26.20;65.30;;;;;;5002943;28;20445;-89
2022/07/05 09:56:48;;;;;;;3.93;1.00;;;26.20;65.60;;;;;;5012998;28;20514;-89
2022/07/05 09:59:18;;;;;;;1.87;1.10;;;26.20;65.70;;;;;;5008415;28;20450;-89
2022/07/05 10:01:45;;;;;;;1.83;1.17;;;26.20;65.70;;;;;;5011874;28;20534;-92
2022/07/05 10:04:12;;;;;;;2.37;1.27;;;26.20;65.70;;;;;;5013009;28;20443;-89
2022/07/05 10:06:39;;;;;;;1.97;1.20;;;26.20;65.60;;;;;;5013542;28;20471;-91
2022/07/05 10:09:09;;;;;;;2.03;1.23;;;26.20;65.80;;;;;;5013260;28;20452;-89
2022/07/05 10:11:40;;;;;;;4.50;1.30;;;26.20;66.00;;;;;;5013289;28;20530;-89
2022/07/05 10:14:12;;;;;;;1.30;1.20;;;26.20;66.10;;;;;;5014995;28;20459;-90
2022/07/05 10:16:39;;;;;;;2.33;1.07;;;26.30;65.90;;;;;;5017069;28;20490;-89
2022/07/05 10:19:14;;;;;;;1.10;1.00;;;26.20;65.80;;;;;;5035454;28;20471;-90
2022/07/05 10:21:42;;;;;;;3.17;1.33;;;26.20;65.70;;;;;;5030235;28;20478;-91
2022/07/05 10:24:11;;;;;;;1.23;1.10;;;26.20;65.70;;;;;;5016676;28;20542;-91
2022/07/05 10:26:39;;;;;;;1.63;1.10;;;26.20;65.60;;;;;;4998890;28;20440;-90
2022/07/05 10:29:07;;;;;;;1.47;1.37;;;26.20;65.50;;;;;;5016490;28;20542;-90
2022/07/05 10:31:35;;;;;;;2.17;1.00;;;26.20;65.50;;;;;;5016236;28;20455;-90
2022/07/05 10:34:07;;;;;;;6.30;1.37;;;26.20;65.60;;;;;;5016198;28;20475;-84
2022/07/05 10:36:37;;;;;;;1.67;1.20;;;26.20;65.50;;;;;;5016152;28;20543;-88
2022/07/05 10:39:06;;;;;;;2.53;1.20;;;26.20;65.00;;;;;;5016579;28;20970;-90
2022/07/05 11:02:22;;;;;;;2.83;1.10;;;26.20;65.70;;;;;;4936111;29;20482;-89
2022/07/05 11:04:56;;;;;;;4.30;1.03;;;26.20;65.70;;;;;;4926736;29;20477;-89
2022/07/05 11:07:56;;;;;;;2.30;1.13;;;26.20;65.70;;;;;;4936090;29;20557;-82
2022/07/05 11:10:23;;;;;;;4.20;1.00;;;26.20;65.60;;;;;;4935826;29;20475;-83
2022/07/05 11:12:50;;;;;;;2.40;1.20;;;26.20;65.70;;;;;;4935609;29;20507;-93
2022/07/05 11:15:17;;;;;;;1.57;1.00;;;26.20;65.70;;;;;;4946371;28;20480;-89
2022/07/05 11:17:44;;;;;;;1.40;0.90;;;26.20;65.60;;;;;;4975897;28;20453;-88
2022/07/05 11:20:23;;;;;;;1.50;0.80;;;26.20;65.60;;;;;;4993726;28;20508;-80
2022/07/05 11:23:12;;;;;;;2.03;1.53;;;26.20;65.60;;;;;;4993917;28;20448;-80
2022/07/05 11:25:41;;;;;;;1.50;1.20;;;26.30;65.50;;;;;;5005932;28;20479;-90
2022/07/05 11:28:14;;;;;;;1.30;1.00;;;26.20;65.60;;;;;;5034949;28;20471;-87
2022/07/05 11:30:50;;;;;;;1.40;1.10;;;26.30;65.50;;;;;;5035027;28;20446;-82
2022/07/05 11:33:38;;;;;;;2.50;1.20;;;26.20;64.90;;;;;;5034952;28;20438;-82
2022/07/05 11:36:08;;;;;;;1.57;1.00;;;26.30;65.90;;;;;;5034300;28;20549;-82
2022/07/05 11:38:35;;;;;;;5.77;1.80;;;26.20;65.10;;;;;;5030707;28;20450;-82
2022/07/05 11:41:15;;;;;;;1.60;1.50;;;26.20;65.00;;;;;;5050896;28;20466;-85
2022/07/05 11:43:43;;;;;;;2.10;1.90;;;26.20;64.90;;;;;;5050364;28;20453;-87
2022/07/05 11:46:24;;;;;;;2.13;1.47;;;26.20;65.00;;;;;;5037336;28;20451;-90
2022/07/05 11:48:52;;;;;;;2.10;1.27;;;26.30;64.80;;;;;;5037478;28;20506;-88
2022/07/05 11:51:20;;;;;;;2.57;1.27;;;26.20;64.70;;;;;;5037091;28;20439;-85
2022/07/05 11:53:47;;;;;;;2.87;1.50;;;26.20;64.70;;;;;;5038425;28;20537;-94
2022/07/05 11:56:14;;;;;;;4.80;1.80;;;26.20;64.60;;;;;;5037518;28;20512;-94
2022/07/05 11:58:41;;;;;;;3.00;1.53;;;26.20;64.70;;;;;;5036189;28;20482;-85
2022/07/05 12:01:08;;;;;;;1.60;1.50;;;26.20;64.60;;;;;;5033908;28;21002;-82
2022/07/05 12:03:36;;;;;;;1.47;1.37;;;26.30;64.60;;;;;;5033905;28;20847;-84
2022/07/05 12:06:13;;;;;;;2.83;1.63;;;26.20;64.70;;;;;;5034163;28;20553;-87
2022/07/05 12:08:42;;;;;;;2.20;1.50;;;26.30;65.20;;;;;;5034208;28;20439;-82
2022/07/05 12:13:56;;;;;;;2.17;1.43;;;26.30;65.30;;;;;;5033850;28;20764;-82
2022/07/05 12:16:25;;;;;;;2.60;1.47;;;26.20;65.30;;;;;;5036056;28;20447;-84
2022/07/05 12:18:54;;;;;;;1.80;1.60;;;26.20;65.30;;;;;;5018115;28;20475;-86
2022/07/05 12:21:22;;;;;;;1.50;1.27;;;26.30;65.40;;;;;;5028907;28;20582;-84
2022/07/05 12:23:51;;;;;;;1.63;1.10;;;26.20;65.30;;;;;;5030155;28;20864;-85
2022/07/05 12:26:21;;;;;;;2.23;1.50;;;26.30;65.40;;;;;;5013853;28;20506;-83
2022/07/05 12:28:48;;;;;;;1.80;1.40;;;26.30;65.40;;;;;;5014127;28;20840;-84
2022/07/05 12:31:19;;;;;;;1.50;1.40;;;26.30;65.30;;;;;;5012952;28;20452;-82
2022/07/05 12:33:47;;;;;;;1.53;1.40;;;26.30;65.30;;;;;;5013186;28;20810;-82
2022/07/05 12:36:14;;;;;;;1.80;1.60;;;26.30;65.40;;;;;;5011932;28;20502;-85
2022/07/05 12:38:41;;;;;;;1.20;1.00;;;26.30;65.40;;;;;;5010753;28;20472;-83
2022/07/05 12:41:10;;;;;;;1.40;1.30;;;26.30;65.30;;;;;;5012545;28;20490;-80
2022/07/05 12:43:51;;;;;;;1.60;1.50;;;26.30;65.30;;;;;;5002354;28;20494;-86
2022/07/05 12:46:18;;;;;;;1.70;1.40;;;26.30;65.20;;;;;;5013156;28;20451;-84
2022/07/05 12:48:46;;;;;;;1.50;1.40;;;26.30;65.30;;;;;;5013435;28;20439;-82
2022/07/05 12:51:13;;;;;;;1.27;1.00;;;26.30;65.30;;;;;;5013426;28;20443;-85
2022/07/05 12:59:28;;;;;;;1.73;1.20;;;26.30;65.30;;;;;;4934058;29;20475;-83
2022/07/05 13:01:55;;;;;;;3.27;1.40;;;26.30;65.30;;;;;;4996378;28;20483;-86
2022/07/05 13:04:23;;;;;;;1.73;1.27;;;26.30;65.30;;;;;;5013340;28;20475;-87
2022/07/05 13:06:53;;;;;;;1.67;1.10;;;26.30;65.20;;;;;;5013254;28;20467;-88
2022/07/05 13:09:32;;;;;;;2.00;1.70;;;26.30;65.20;;;;;;5013745;28;20447;-93
2022/07/05 13:12:08;;;;;;;1.40;1.20;;;26.40;65.30;;;;;;4996113;28;20463;-88
2022/07/05 13:14:37;;;;;;;2.37;1.10;;;26.30;65.20;;;;;;5012718;28;20551;-86
2022/07/05 13:17:04;;;;;;;1.37;1.27;;;26.30;65.30;;;;;;5013895;28;20475;-86
2022/07/05 13:19:31;;;;;;;1.60;1.50;;;26.30;65.40;;;;;;5018601;28;20479;-83
2022/07/05 13:21:58;;;;;;;1.20;1.10;;;26.30;65.40;;;;;;5016572;28;20538;-83
2022/07/05 13:24:25;;;;;;;2.20;1.10;;;26.30;65.30;;;;;;4997786;28;20550;-84
2022/07/05 13:26:52;;;;;;;1.57;1.30;;;26.40;65.40;;;;;;5001582;28;20472;-88